Tufts Univ, Massachusetts
Current Conditions -  °F | °C
As of 3:54 PM on Thursday 27 Nov 2014 (Local Time) from KBOS Reporting Station
Overcast Overcast  
Wind Chill: 31°   Ceiling: 2000
Heat Index: 37°   Visibility: 10mi
Dew Point: 30°   Wind: 8mph
Humidity: 76%   Direction: 320°NW
Pressure: 29.97"   Gusts: NA
Location:  42.4184°N, 71.1069°W
Report Text: KBOS 272054Z 32007KT 10SM BKN020 OVC045 03/M01 A2997 RMK AO2 SLP148 T00281011 53009
Loading
Personal Weather Stations






























Interactive Weather Map New forecast layout! Learn more

10-Day Weather Forecast

Advertisements
Track Severe Weather on mobile